createdAt,value
2022-09-18T00:00:46.228Z,45.47
2022-09-18T00:15:48.504Z,45.967
2022-09-18T00:30:50.771Z,47.166
2022-09-18T00:45:52.980Z,49.429
2022-09-18T01:00:55.312Z,47.229
2022-09-18T01:15:57.695Z,48.039
2022-09-18T01:31:00.193Z,51.84
2022-09-18T01:46:02.416Z,52.943
2022-09-18T02:01:04.638Z,54.132
2022-09-18T02:16:07.050Z,54.573
2022-09-18T02:31:09.358Z,55.348
2022-09-18T02:46:11.729Z,55.7
2022-09-18T03:01:14.076Z,57.701
2022-09-18T03:16:16.545Z,58.056
2022-09-18T03:31:19.039Z,59.928
2022-09-18T03:46:21.376Z,59.465
2022-09-18T04:01:23.634Z,58.495
2022-09-18T04:16:25.966Z,59.483
2022-09-18T04:31:28.426Z,57.46
2022-09-18T04:46:30.758Z,58.695
2022-09-18T05:01:33.102Z,57.793
2022-09-18T05:16:35.646Z,60.741
2022-09-18T05:31:38.008Z,61.15
2022-09-18T05:46:40.356Z,61.348
2022-09-18T06:01:46.965Z,60.37
2022-09-18T06:16:49.695Z,62.274
2022-09-18T06:31:52.002Z,60.94
2022-09-18T06:46:54.363Z,60.23
2022-09-18T07:01:56.711Z,62.202
2022-09-18T07:16:59.101Z,61.193
2022-09-18T07:32:01.811Z,61.429
2022-09-18T07:47:04.359Z,61.329
2022-09-18T08:02:06.756Z,62.06
2022-09-18T08:17:09.136Z,62.192
2022-09-18T08:32:11.358Z,63.379
2022-09-18T08:47:13.564Z,60.921
2022-09-18T09:02:15.801Z,61.249
2022-09-18T09:17:18.111Z,61.71
2022-09-18T09:32:20.344Z,60.596
2022-09-18T09:47:22.599Z,63.488
2022-09-18T10:02:25.081Z,61.889
2022-09-18T10:17:27.393Z,61.97
2022-09-18T10:32:29.608Z,62.503
2022-09-18T10:47:31.878Z,62.573
2022-09-18T11:02:34.137Z,61.923
2022-09-18T11:17:36.466Z,62.855
2022-09-18T11:32:39.020Z,61.289
2022-09-18T11:47:41.249Z,63.174
2022-09-18T12:02:43.640Z,62.474
2022-09-18T12:17:44.713Z,62.517
2022-09-18T12:32:46.936Z,62.61
2022-09-18T12:47:49.804Z,61.886
2022-09-18T13:02:52.014Z,63.475
2022-09-18T13:17:55.142Z,62.938
2022-09-18T13:32:57.413Z,64.679
2022-09-18T13:47:59.577Z,64.556
2022-09-18T14:03:01.970Z,64.433
2022-09-18T14:18:04.295Z,63.294
2022-09-18T14:33:06.547Z,63.18
2022-09-18T14:48:11.745Z,56.877
2022-09-18T15:03:16.422Z,60.427
2022-09-18T15:18:18.792Z,60.558
2022-09-18T15:33:21.097Z,61.805
2022-09-18T15:48:23.332Z,61.895
2022-09-18T16:03:25.575Z,58.803
2022-09-18T16:18:27.852Z,56.641
2022-09-18T16:33:30.323Z,59.086
2022-09-18T16:48:32.555Z,57.5
2022-09-18T17:03:34.784Z,56.966
2022-09-18T17:18:37.073Z,55.862
2022-09-18T17:33:39.275Z,53.762
2022-09-18T17:48:41.590Z,53.96
2022-09-18T18:03:43.895Z,51.053
2022-09-18T18:18:46.152Z,50.969
2022-09-18T18:33:48.394Z,50.708
2022-09-18T18:48:50.637Z,50.343
2022-09-18T19:03:52.950Z,49.537
2022-09-18T19:18:55.380Z,49.018
2022-09-18T19:33:57.657Z,47.171
2022-09-18T19:48:59.891Z,45.918
2022-09-18T20:04:02.163Z,45.551
2022-09-18T20:19:04.553Z,44.593
2022-09-18T20:34:06.946Z,44.929
2022-09-18T20:49:09.295Z,44.313
2022-09-18T21:04:11.534Z,44.511
2022-09-18T21:19:13.740Z,42.737
2022-09-18T21:34:16.050Z,42.047
2022-09-18T21:49:18.242Z,41.287
2022-09-18T22:04:20.483Z,41.21
2022-09-18T22:19:22.828Z,40.886
2022-09-18T22:34:25.263Z,39.057
2022-09-18T22:49:27.528Z,38.917
2022-09-18T23:04:29.848Z,38.657
2022-09-18T23:19:32.138Z,36.849
2022-09-18T23:34:34.408Z,36.886
2022-09-18T23:49:36.599Z,37.692
